sensor_id;sensor_type;location;lat;lon;timestamp;temperature;humidity
16513;DHT22;8369;48.030;11.598;2023-10-19T00:00:52;8.50;99.90
16513;DHT22;8369;48.030;11.598;2023-10-19T00:03:22;8.40;99.90
16513;DHT22;8369;48.030;11.598;2023-10-19T00:05:49;8.40;99.90
16513;DHT22;8369;48.030;11.598;2023-10-19T00:08:20;8.40;99.90
16513;DHT22;8369;48.030;11.598;2023-10-19T00:10:49;8.40;99.90
16513;DHT22;8369;48.030;11.598;2023-10-19T00:13:33;8.40;99.90
16513;DHT22;8369;48.030;11.598;2023-10-19T00:16:01;8.40;99.90
16513;DHT22;8369;48.030;11.598;2023-10-19T00:18:33;8.40;99.90
16513;DHT22;8369;48.030;11.598;2023-10-19T00:21:00;8.40;99.90
16513;DHT22;8369;48.030;11.598;2023-10-19T00:23:39;8.40;99.90
16513;DHT22;8369;48.030;11.598;2023-10-19T00:26:08;8.40;99.90
16513;DHT22;8369;48.030;11.598;2023-10-19T00:28:36;8.40;99.90
16513;DHT22;8369;48.030;11.598;2023-10-19T00:31:04;8.40;99.90
16513;DHT22;8369;48.030;11.598;2023-10-19T00:33:39;8.40;99.90
16513;DHT22;8369;48.030;11.598;2023-10-19T00:36:07;8.40;99.90
16513;DHT22;8369;48.030;11.598;2023-10-19T00:38:35;8.30;99.90
16513;DHT22;8369;48.030;11.598;2023-10-19T00:41:01;8.30;99.90
16513;DHT22;8369;48.030;11.598;2023-10-19T00:43:41;8.30;99.90
16513;DHT22;8369;48.030;11.598;2023-10-19T00:46:18;8.30;99.90
16513;DHT22;8369;48.030;11.598;2023-10-19T00:48:51;8.30;99.90
16513;DHT22;8369;48.030;11.598;2023-10-19T00:51:23;8.30;99.90
16513;DHT22;8369;48.030;11.598;2023-10-19T00:57:04;8.20;99.90
16513;DHT22;8369;48.030;11.598;2023-10-19T00:59:42;8.20;99.90
16513;DHT22;8369;48.030;11.598;2023-10-19T01:02:19;8.20;99.90
16513;DHT22;8369;48.030;11.598;2023-10-19T01:04:50;8.20;99.90
16513;DHT22;8369;48.030;11.598;2023-10-19T01:07:31;8.20;99.90
16513;DHT22;8369;48.030;11.598;2023-10-19T01:10:01;8.20;99.90
16513;DHT22;8369;48.030;11.598;2023-10-19T01:12:42;8.20;99.90
16513;DHT22;8369;48.030;11.598;2023-10-19T01:15:17;8.30;99.90
16513;DHT22;8369;48.030;11.598;2023-10-19T01:17:59;8.30;99.90
16513;DHT22;8369;48.030;11.598;2023-10-19T01:20:27;8.30;99.90
16513;DHT22;8369;48.030;11.598;2023-10-19T01:23:07;8.30;99.90
16513;DHT22;8369;48.030;11.598;2023-10-19T01:28:28;8.30;99.90
16513;DHT22;8369;48.030;11.598;2023-10-19T01:31:04;8.30;99.90
16513;DHT22;8369;48.030;11.598;2023-10-19T01:33:33;8.30;99.90
16513;DHT22;8369;48.030;11.598;2023-10-19T01:36:05;8.40;99.90
16513;DHT22;8369;48.030;11.598;2023-10-19T01:38:42;8.40;99.90
16513;DHT22;8369;48.030;11.598;2023-10-19T01:41:12;8.40;99.90
16513;DHT22;8369;48.030;11.598;2023-10-19T01:43:50;8.40;99.90
16513;DHT22;8369;48.030;11.598;2023-10-19T01:46:25;8.40;99.90
16513;DHT22;8369;48.030;11.598;2023-10-19T01:49:05;8.40;99.90
16513;DHT22;8369;48.030;11.598;2023-10-19T01:51:34;8.40;99.90
16513;DHT22;8369;48.030;11.598;2023-10-19T01:54:26;8.50;99.90
16513;DHT22;8369;48.030;11.598;2023-10-19T01:56:58;8.50;99.90
16513;DHT22;8369;48.030;11.598;2023-10-19T01:59:24;8.50;99.90
16513;DHT22;8369;48.030;11.598;2023-10-19T02:01:56;8.50;99.90
16513;DHT22;8369;48.030;11.598;2023-10-19T02:04:24;8.50;99.90
16513;DHT22;8369;48.030;11.598;2023-10-19T02:10:24;8.50;99.90
16513;DHT22;8369;48.030;11.598;2023-10-19T02:12:52;8.50;99.90
16513;DHT22;8369;48.030;11.598;2023-10-19T02:15:21;8.50;99.90
16513;DHT22;8369;48.030;11.598;2023-10-19T02:17:47;8.50;99.90
16513;DHT22;8369;48.030;11.598;2023-10-19T02:20:14;8.50;99.90
16513;DHT22;8369;48.030;11.598;2023-10-19T02:22:43;8.60;99.90
16513;DHT22;8369;48.030;11.598;2023-10-19T02:25:09;8.60;99.90
16513;DHT22;8369;48.030;11.598;2023-10-19T02:27:36;8.60;99.90
16513;DHT22;8369;48.030;11.598;2023-10-19T02:30:03;8.60;99.90
16513;DHT22;8369;48.030;11.598;2023-10-19T02:32:30;8.60;99.90
16513;DHT22;8369;48.030;11.598;2023-10-19T02:35:01;8.60;99.90
16513;DHT22;8369;48.030;11.598;2023-10-19T02:37:31;8.60;99.90
16513;DHT22;8369;48.030;11.598;2023-10-19T02:40:00;8.60;99.90
16513;DHT22;8369;48.030;11.598;2023-10-19T02:42:28;8.60;99.90
16513;DHT22;8369;48.030;11.598;2023-10-19T02:44:57;8.60;99.90
16513;DHT22;8369;48.030;11.598;2023-10-19T02:47:25;8.60;99.90
16513;DHT22;8369;48.030;11.598;2023-10-19T02:49:54;8.60;99.90
16513;DHT22;8369;48.030;11.598;2023-10-19T02:52:21;8.60;99.90
16513;DHT22;8369;48.030;11.598;2023-10-19T02:54:48;8.60;99.90
16513;DHT22;8369;48.030;11.598;2023-10-19T02:57:14;8.60;99.90
16513;DHT22;8369;48.030;11.598;2023-10-19T02:59:40;8.60;99.90
16513;DHT22;8369;48.030;11.598;2023-10-19T03:02:06;8.60;99.90
16513;DHT22;8369;48.030;11.598;2023-10-19T03:04:38;8.60;99.90
16513;DHT22;8369;48.030;11.598;2023-10-19T03:07:09;8.70;99.90
16513;DHT22;8369;48.030;11.598;2023-10-19T03:09:35;8.60;99.90
16513;DHT22;8369;48.030;11.598;2023-10-19T03:12:07;8.70;99.90
16513;DHT22;8369;48.030;11.598;2023-10-19T03:14:36;8.70;99.90
16513;DHT22;8369;48.030;11.598;2023-10-19T03:17:05;8.70;99.90
16513;DHT22;8369;48.030;11.598;2023-10-19T03:19:43;8.70;99.90
16513;DHT22;8369;48.030;11.598;2023-10-19T03:22:11;8.70;99.90
16513;DHT22;8369;48.030;11.598;2023-10-19T03:24:40;8.70;99.90
16513;DHT22;8369;48.030;11.598;2023-10-19T03:27:10;8.70;99.90
16513;DHT22;8369;48.030;11.598;2023-10-19T03:29:51;8.70;99.90
16513;DHT22;8369;48.030;11.598;2023-10-19T03:32:28;8.70;99.90
16513;DHT22;8369;48.030;11.598;2023-10-19T03:34:58;8.70;99.90
16513;DHT22;8369;48.030;11.598;2023-10-19T03:37:28;8.70;99.90
16513;DHT22;8369;48.030;11.598;2023-10-19T03:40:00;8.70;99.90
16513;DHT22;8369;48.030;11.598;2023-10-19T03:42:36;8.70;99.90
16513;DHT22;8369;48.030;11.598;2023-10-19T03:45:10;8.70;99.90
16513;DHT22;8369;48.030;11.598;2023-10-19T03:47:39;8.70;99.90
16513;DHT22;8369;48.030;11.598;2023-10-19T03:50:14;8.70;99.90
16513;DHT22;8369;48.030;11.598;2023-10-19T03:52:43;8.70;99.90
16513;DHT22;8369;48.030;11.598;2023-10-19T03:55:10;8.70;99.90
16513;DHT22;8369;48.030;11.598;2023-10-19T03:57:44;8.70;99.90
16513;DHT22;8369;48.030;11.598;2023-10-19T04:00:18;8.70;99.90
16513;DHT22;8369;48.030;11.598;2023-10-19T04:02:47;8.70;99.90
16513;DHT22;8369;48.030;11.598;2023-10-19T04:05:13;8.70;99.90
16513;DHT22;8369;48.030;11.598;2023-10-19T04:07:48;8.70;99.90
16513;DHT22;8369;48.030;11.598;2023-10-19T04:10:23;8.70;99.90
16513;DHT22;8369;48.030;11.598;2023-10-19T04:13:00;8.70;99.90
16513;DHT22;8369;48.030;11.598;2023-10-19T04:15:27;8.70;99.90
16513;DHT22;8369;48.030;11.598;2023-10-19T04:18:12;8.70;99.90
16513;DHT22;8369;48.030;11.598;2023-10-19T04:20:39;8.70;99.90
16513;DHT22;8369;48.030;11.598;2023-10-19T04:23:22;8.80;99.90
16513;DHT22;8369;48.030;11.598;2023-10-19T04:25:58;8.80;99.90
16513;DHT22;8369;48.030;11.598;2023-10-19T04:28:31;8.80;99.90
16513;DHT22;8369;48.030;11.598;2023-10-19T04:31:11;8.80;99.90
16513;DHT22;8369;48.030;11.598;2023-10-19T04:33:43;8.80;99.90
16513;DHT22;8369;48.030;11.598;2023-10-19T04:36:14;8.80;99.90
16513;DHT22;8369;48.030;11.598;2023-10-19T04:38:40;8.80;99.90
16513;DHT22;8369;48.030;11.598;2023-10-19T04:41:10;8.80;99.90
16513;DHT22;8369;48.030;11.598;2023-10-19T04:43:44;8.80;99.90
16513;DHT22;8369;48.030;11.598;2023-10-19T04:46:15;8.80;99.90
16513;DHT22;8369;48.030;11.598;2023-10-19T04:48:44;8.90;99.90
16513;DHT22;8369;48.030;11.598;2023-10-19T04:51:12;8.90;99.90
16513;DHT22;8369;48.030;11.598;2023-10-19T04:53:39;8.90;99.90
16513;DHT22;8369;48.030;11.598;2023-10-19T04:56:08;8.90;99.90
16513;DHT22;8369;48.030;11.598;2023-10-19T04:58:38;8.90;99.90
16513;DHT22;8369;48.030;11.598;2023-10-19T05:01:04;8.90;99.90
16513;DHT22;8369;48.030;11.598;2023-10-19T05:03:31;8.90;99.90
16513;DHT22;8369;48.030;11.598;2023-10-19T05:05:58;8.90;99.90
16513;DHT22;8369;48.030;11.598;2023-10-19T05:08:28;8.90;99.90
16513;DHT22;8369;48.030;11.598;2023-10-19T05:10:55;9.00;99.90
16513;DHT22;8369;48.030;11.598;2023-10-19T05:13:25;9.00;99.90
16513;DHT22;8369;48.030;11.598;2023-10-19T05:15:53;9.00;99.90
16513;DHT22;8369;48.030;11.598;2023-10-19T05:18:22;9.00;99.90
16513;DHT22;8369;48.030;11.598;2023-10-19T05:20:48;9.00;99.90
16513;DHT22;8369;48.030;11.598;2023-10-19T05:23:24;9.10;99.90
16513;DHT22;8369;48.030;11.598;2023-10-19T05:25:53;9.10;99.90
16513;DHT22;8369;48.030;11.598;2023-10-19T05:28:25;9.10;99.90
16513;DHT22;8369;48.030;11.598;2023-10-19T05:30:52;9.10;99.90
16513;DHT22;8369;48.030;11.598;2023-10-19T05:33:18;9.10;99.90
16513;DHT22;8369;48.030;11.598;2023-10-19T05:35:50;9.10;99.90
16513;DHT22;8369;48.030;11.598;2023-10-19T05:38:21;9.10;99.90
16513;DHT22;8369;48.030;11.598;2023-10-19T05:40:48;9.10;99.90
16513;DHT22;8369;48.030;11.598;2023-10-19T05:43:19;9.10;99.90
16513;DHT22;8369;48.030;11.598;2023-10-19T05:45:45;9.20;99.90
16513;DHT22;8369;48.030;11.598;2023-10-19T05:48:16;9.20;99.90
16513;DHT22;8369;48.030;11.598;2023-10-19T05:50:42;9.20;99.90
16513;DHT22;8369;48.030;11.598;2023-10-19T05:53:08;9.20;99.90
16513;DHT22;8369;48.030;11.598;2023-10-19T05:55:34;9.20;99.90
16513;DHT22;8369;48.030;11.598;2023-10-19T05:58:02;9.20;99.90
16513;DHT22;8369;48.030;11.598;2023-10-19T06:00:31;9.20;99.90
16513;DHT22;8369;48.030;11.598;2023-10-19T06:02:58;9.20;99.90
16513;DHT22;8369;48.030;11.598;2023-10-19T06:05:25;9.20;99.90
16513;DHT22;8369;48.030;11.598;2023-10-19T06:07:52;9.20;99.90
16513;DHT22;8369;48.030;11.598;2023-10-19T06:10:22;9.20;99.90
16513;DHT22;8369;48.030;11.598;2023-10-19T06:12:49;9.20;99.90
16513;DHT22;8369;48.030;11.598;2023-10-19T06:15:17;9.30;99.90
16513;DHT22;8369;48.030;11.598;2023-10-19T06:17:44;9.30;99.90
16513;DHT22;8369;48.030;11.598;2023-10-19T06:20:11;9.30;99.90
16513;DHT22;8369;48.030;11.598;2023-10-19T06:22:51;9.30;99.90
16513;DHT22;8369;48.030;11.598;2023-10-19T06:25:22;9.30;99.90
16513;DHT22;8369;48.030;11.598;2023-10-19T06:27:49;9.40;99.90
16513;DHT22;8369;48.030;11.598;2023-10-19T06:30:17;9.40;99.90
16513;DHT22;8369;48.030;11.598;2023-10-19T06:32:47;9.40;99.90
16513;DHT22;8369;48.030;11.598;2023-10-19T06:35:13;9.40;99.90
16513;DHT22;8369;48.030;11.598;2023-10-19T06:37:39;9.50;99.90
16513;DHT22;8369;48.030;11.598;2023-10-19T06:40:06;9.50;99.90
16513;DHT22;8369;48.030;11.598;2023-10-19T06:42:35;9.60;99.90
16513;DHT22;8369;48.030;11.598;2023-10-19T06:45:01;9.60;99.90
16513;DHT22;8369;48.030;11.598;2023-10-19T06:47:28;9.60;99.90
16513;DHT22;8369;48.030;11.598;2023-10-19T06:49:55;9.70;99.90
16513;DHT22;8369;48.030;11.598;2023-10-19T06:52:22;9.70;99.90
16513;DHT22;8369;48.030;11.598;2023-10-19T06:54:49;9.70;99.90
16513;DHT22;8369;48.030;11.598;2023-10-19T06:57:15;9.70;99.90
16513;DHT22;8369;48.030;11.598;2023-10-19T06:59:41;9.70;99.90
16513;DHT22;8369;48.030;11.598;2023-10-19T07:02:11;9.80;99.90
16513;DHT22;8369;48.030;11.598;2023-10-19T07:04:38;9.80;99.90
16513;DHT22;8369;48.030;11.598;2023-10-19T07:07:04;9.80;99.90
16513;DHT22;8369;48.030;11.598;2023-10-19T07:09:30;9.90;99.90
16513;DHT22;8369;48.030;11.598;2023-10-19T07:11:56;9.90;99.90
16513;DHT22;8369;48.030;11.598;2023-10-19T07:14:23;10.00;99.90
16513;DHT22;8369;48.030;11.598;2023-10-19T07:16:49;10.00;99.90
16513;DHT22;8369;48.030;11.598;2023-10-19T07:19:17;10.00;99.90
16513;DHT22;8369;48.030;11.598;2023-10-19T07:21:44;10.10;99.90
16513;DHT22;8369;48.030;11.598;2023-10-19T07:24:15;10.10;99.90
16513;DHT22;8369;48.030;11.598;2023-10-19T07:26:45;10.20;99.90
16513;DHT22;8369;48.030;11.598;2023-10-19T07:29:32;10.30;99.90
16513;DHT22;8369;48.030;11.598;2023-10-19T07:32:00;10.30;99.90
16513;DHT22;8369;48.030;11.598;2023-10-19T07:34:26;10.40;99.90
16513;DHT22;8369;48.030;11.598;2023-10-19T07:36:57;10.40;99.90
16513;DHT22;8369;48.030;11.598;2023-10-19T07:39:25;10.50;99.90
16513;DHT22;8369;48.030;11.598;2023-10-19T07:41:55;10.50;99.90
16513;DHT22;8369;48.030;11.598;2023-10-19T07:44:22;10.60;99.90
16513;DHT22;8369;48.030;11.598;2023-10-19T07:46:49;10.60;99.90
16513;DHT22;8369;48.030;11.598;2023-10-19T07:49:15;10.70;99.90
16513;DHT22;8369;48.030;11.598;2023-10-19T07:51:45;10.70;99.90
16513;DHT22;8369;48.030;11.598;2023-10-19T07:54:12;10.80;99.90
16513;DHT22;8369;48.030;11.598;2023-10-19T07:56:38;10.90;99.90
16513;DHT22;8369;48.030;11.598;2023-10-19T07:59:05;10.90;99.90
16513;DHT22;8369;48.030;11.598;2023-10-19T08:01:33;11.00;99.90
16513;DHT22;8369;48.030;11.598;2023-10-19T08:03:59;11.10;99.90
16513;DHT22;8369;48.030;11.598;2023-10-19T08:06:28;11.10;99.90
16513;DHT22;8369;48.030;11.598;2023-10-19T08:08:55;11.20;99.90
16513;DHT22;8369;48.030;11.598;2023-10-19T08:11:21;11.30;99.90
16513;DHT22;8369;48.030;11.598;2023-10-19T08:13:47;11.40;99.90
16513;DHT22;8369;48.030;11.598;2023-10-19T08:16:14;11.40;99.90
16513;DHT22;8369;48.030;11.598;2023-10-19T08:18:45;11.50;99.90
16513;DHT22;8369;48.030;11.598;2023-10-19T08:21:11;11.60;99.90
16513;DHT22;8369;48.030;11.598;2023-10-19T08:23:38;11.70;99.90
16513;DHT22;8369;48.030;11.598;2023-10-19T08:26:04;11.80;99.90
16513;DHT22;8369;48.030;11.598;2023-10-19T08:28:31;11.90;99.90
16513;DHT22;8369;48.030;11.598;2023-10-19T08:30:58;12.00;99.90
16513;DHT22;8369;48.030;11.598;2023-10-19T08:33:28;12.10;99.90
16513;DHT22;8369;48.030;11.598;2023-10-19T08:35:56;12.10;99.90
16513;DHT22;8369;48.030;11.598;2023-10-19T08:38:25;12.20;99.90
16513;DHT22;8369;48.030;11.598;2023-10-19T08:40:52;12.30;99.90
16513;DHT22;8369;48.030;11.598;2023-10-19T08:43:19;12.40;99.90
16513;DHT22;8369;48.030;11.598;2023-10-19T08:45:45;12.40;99.90
16513;DHT22;8369;48.030;11.598;2023-10-19T08:48:12;12.50;99.90
16513;DHT22;8369;48.030;11.598;2023-10-19T08:50:39;12.60;99.90
16513;DHT22;8369;48.030;11.598;2023-10-19T08:53:08;12.70;99.90
16513;DHT22;8369;48.030;11.598;2023-10-19T08:55:35;12.80;99.90
16513;DHT22;8369;48.030;11.598;2023-10-19T08:58:01;12.80;99.90
16513;DHT22;8369;48.030;11.598;2023-10-19T09:01:02;12.90;99.90
16513;DHT22;8369;48.030;11.598;2023-10-19T09:03:38;13.00;99.90
16513;DHT22;8369;48.030;11.598;2023-10-19T09:06:06;13.10;99.90
16513;DHT22;8369;48.030;11.598;2023-10-19T09:08:32;13.20;99.90
16513;DHT22;8369;48.030;11.598;2023-10-19T09:11:09;13.20;99.90
16513;DHT22;8369;48.030;11.598;2023-10-19T09:13:48;13.30;99.90
16513;DHT22;8369;48.030;11.598;2023-10-19T09:16:16;13.40;99.90
16513;DHT22;8369;48.030;11.598;2023-10-19T09:18:42;13.40;99.90
16513;DHT22;8369;48.030;11.598;2023-10-19T09:21:09;13.50;99.90
16513;DHT22;8369;48.030;11.598;2023-10-19T09:23:38;13.50;99.90
16513;DHT22;8369;48.030;11.598;2023-10-19T09:26:05;13.50;99.90
16513;DHT22;8369;48.030;11.598;2023-10-19T09:28:35;13.50;99.90
16513;DHT22;8369;48.030;11.598;2023-10-19T09:31:02;13.60;99.90
16513;DHT22;8369;48.030;11.598;2023-10-19T09:33:33;13.60;99.90
16513;DHT22;8369;48.030;11.598;2023-10-19T09:36:01;13.60;99.90
16513;DHT22;8369;48.030;11.598;2023-10-19T09:38:27;13.60;99.90
16513;DHT22;8369;48.030;11.598;2023-10-19T09:40:55;13.60;99.90
16513;DHT22;8369;48.030;11.598;2023-10-19T09:43:33;13.60;99.90
16513;DHT22;8369;48.030;11.598;2023-10-19T09:46:03;13.60;99.90
16513;DHT22;8369;48.030;11.598;2023-10-19T09:48:32;13.70;99.90
16513;DHT22;8369;48.030;11.598;2023-10-19T09:51:02;13.70;99.90
16513;DHT22;8369;48.030;11.598;2023-10-19T09:53:29;13.80;99.90
16513;DHT22;8369;48.030;11.598;2023-10-19T09:55:58;13.80;99.90
16513;DHT22;8369;48.030;11.598;2023-10-19T09:58:27;13.90;99.90
16513;DHT22;8369;48.030;11.598;2023-10-19T10:00:55;13.90;99.90
16513;DHT22;8369;48.030;11.598;2023-10-19T10:03:42;14.00;99.90
16513;DHT22;8369;48.030;11.598;2023-10-19T10:06:10;14.00;99.90
16513;DHT22;8369;48.030;11.598;2023-10-19T10:08:39;14.10;99.90
16513;DHT22;8369;48.030;11.598;2023-10-19T10:11:18;14.10;99.90
16513;DHT22;8369;48.030;11.598;2023-10-19T10:13:45;14.20;99.90
16513;DHT22;8369;48.030;11.598;2023-10-19T10:16:15;14.30;99.90
16513;DHT22;8369;48.030;11.598;2023-10-19T10:18:41;14.30;99.90
16513;DHT22;8369;48.030;11.598;2023-10-19T10:21:14;14.40;99.90
16513;DHT22;8369;48.030;11.598;2023-10-19T10:24:03;14.40;99.90
16513;DHT22;8369;48.030;11.598;2023-10-19T10:26:31;14.50;99.90
16513;DHT22;8369;48.030;11.598;2023-10-19T10:29:23;14.50;99.90
16513;DHT22;8369;48.030;11.598;2023-10-19T10:31:53;14.60;99.90
16513;DHT22;8369;48.030;11.598;2023-10-19T10:37:10;14.70;99.90
16513;DHT22;8369;48.030;11.598;2023-10-19T10:39:38;14.70;99.90
16513;DHT22;8369;48.030;11.598;2023-10-19T10:42:08;14.70;99.90
16513;DHT22;8369;48.030;11.598;2023-10-19T10:44:48;14.80;99.90
16513;DHT22;8369;48.030;11.598;2023-10-19T10:47:22;14.80;99.90
16513;DHT22;8369;48.030;11.598;2023-10-19T10:49:55;14.90;99.90
16513;DHT22;8369;48.030;11.598;2023-10-19T10:52:28;15.00;99.90
16513;DHT22;8369;48.030;11.598;2023-10-19T10:54:56;15.00;99.90
16513;DHT22;8369;48.030;11.598;2023-10-19T10:57:23;15.10;99.90
16513;DHT22;8369;48.030;11.598;2023-10-19T11:00:13;15.20;99.90
16513;DHT22;8369;48.030;11.598;2023-10-19T11:02:44;15.30;99.90
16513;DHT22;8369;48.030;11.598;2023-10-19T11:05:14;15.30;99.90
16513;DHT22;8369;48.030;11.598;2023-10-19T11:08:02;15.40;99.90
16513;DHT22;8369;48.030;11.598;2023-10-19T11:10:32;15.40;99.90
16513;DHT22;8369;48.030;11.598;2023-10-19T11:13:03;15.40;99.90
16513;DHT22;8369;48.030;11.598;2023-10-19T11:15:29;15.50;99.90
16513;DHT22;8369;48.030;11.598;2023-10-19T11:17:55;15.50;99.90
16513;DHT22;8369;48.030;11.598;2023-10-19T11:20:23;15.60;99.90
16513;DHT22;8369;48.030;11.598;2023-10-19T11:22:55;15.60;99.90
16513;DHT22;8369;48.030;11.598;2023-10-19T11:25:39;15.70;99.90
16513;DHT22;8369;48.030;11.598;2023-10-19T11:28:16;15.70;99.90
16513;DHT22;8369;48.030;11.598;2023-10-19T11:30:43;15.70;99.90
16513;DHT22;8369;48.030;11.598;2023-10-19T11:33:09;15.80;99.90
16513;DHT22;8369;48.030;11.598;2023-10-19T11:35:36;15.80;99.90
16513;DHT22;8369;48.030;11.598;2023-10-19T11:38:06;15.80;99.90
16513;DHT22;8369;48.030;11.598;2023-10-19T11:40:31;15.80;99.90
16513;DHT22;8369;48.030;11.598;2023-10-19T11:42:57;15.80;99.90
16513;DHT22;8369;48.030;11.598;2023-10-19T11:45:25;15.90;99.90
16513;DHT22;8369;48.030;11.598;2023-10-19T11:47:54;15.90;99.90
16513;DHT22;8369;48.030;11.598;2023-10-19T11:50:20;15.90;99.90
16513;DHT22;8369;48.030;11.598;2023-10-19T11:52:46;15.90;99.90
16513;DHT22;8369;48.030;11.598;2023-10-19T11:55:15;15.90;99.90
16513;DHT22;8369;48.030;11.598;2023-10-19T11:57:44;15.90;99.90
16513;DHT22;8369;48.030;11.598;2023-10-19T12:00:19;16.00;99.90
16513;DHT22;8369;48.030;11.598;2023-10-19T12:02:50;16.00;99.90
16513;DHT22;8369;48.030;11.598;2023-10-19T12:05:17;16.00;99.90
16513;DHT22;8369;48.030;11.598;2023-10-19T12:07:45;16.10;99.90
16513;DHT22;8369;48.030;11.598;2023-10-19T12:10:17;16.20;99.90
16513;DHT22;8369;48.030;11.598;2023-10-19T12:12:46;16.30;99.90
16513;DHT22;8369;48.030;11.598;2023-10-19T12:15:12;16.40;99.90
16513;DHT22;8369;48.030;11.598;2023-10-19T12:17:57;16.40;99.90
16513;DHT22;8369;48.030;11.598;2023-10-19T12:20:25;16.50;99.90
16513;DHT22;8369;48.030;11.598;2023-10-19T12:22:52;16.50;99.90
16513;DHT22;8369;48.030;11.598;2023-10-19T12:25:23;16.60;99.90
16513;DHT22;8369;48.030;11.598;2023-10-19T12:27:58;16.60;99.90
16513;DHT22;8369;48.030;11.598;2023-10-19T12:30:24;16.60;99.90
16513;DHT22;8369;48.030;11.598;2023-10-19T12:33:00;16.60;99.90
16513;DHT22;8369;48.030;11.598;2023-10-19T12:35:28;16.60;99.90
16513;DHT22;8369;48.030;11.598;2023-10-19T12:38:11;16.70;99.90
16513;DHT22;8369;48.030;11.598;2023-10-19T12:40:45;16.80;99.90
16513;DHT22;8369;48.030;11.598;2023-10-19T12:43:15;16.90;99.90
16513;DHT22;8369;48.030;11.598;2023-10-19T12:45:44;16.90;99.90
16513;DHT22;8369;48.030;11.598;2023-10-19T12:48:17;17.00;99.90
16513;DHT22;8369;48.030;11.598;2023-10-19T12:50:43;17.00;99.90
16513;DHT22;8369;48.030;11.598;2023-10-19T12:53:09;17.00;99.90
16513;DHT22;8369;48.030;11.598;2023-10-19T12:55:36;17.00;99.90
16513;DHT22;8369;48.030;11.598;2023-10-19T12:58:05;17.10;99.90
16513;DHT22;8369;48.030;11.598;2023-10-19T13:00:38;17.10;99.90
16513;DHT22;8369;48.030;11.598;2023-10-19T13:03:07;17.10;99.90
16513;DHT22;8369;48.030;11.598;2023-10-19T13:05:37;17.10;99.90
16513;DHT22;8369;48.030;11.598;2023-10-19T13:08:07;17.20;99.90
16513;DHT22;8369;48.030;11.598;2023-10-19T13:10:34;17.10;99.90
16513;DHT22;8369;48.030;11.598;2023-10-19T13:13:04;17.10;99.90
16513;DHT22;8369;48.030;11.598;2023-10-19T13:15:35;17.00;99.90
16513;DHT22;8369;48.030;11.598;2023-10-19T13:18:04;17.00;99.90
16513;DHT22;8369;48.030;11.598;2023-10-19T13:20:32;17.00;99.90
16513;DHT22;8369;48.030;11.598;2023-10-19T13:23:07;17.00;99.90
16513;DHT22;8369;48.030;11.598;2023-10-19T13:25:37;17.00;99.90
16513;DHT22;8369;48.030;11.598;2023-10-19T13:28:16;16.90;99.90
16513;DHT22;8369;48.030;11.598;2023-10-19T13:30:51;16.90;99.90
16513;DHT22;8369;48.030;11.598;2023-10-19T13:33:20;16.90;99.90
16513;DHT22;8369;48.030;11.598;2023-10-19T13:35:50;16.90;99.90
16513;DHT22;8369;48.030;11.598;2023-10-19T13:38:18;16.80;99.90
16513;DHT22;8369;48.030;11.598;2023-10-19T13:40:45;16.80;99.90
16513;DHT22;8369;48.030;11.598;2023-10-19T13:43:13;16.80;99.90
16513;DHT22;8369;48.030;11.598;2023-10-19T13:45:44;16.70;99.90
16513;DHT22;8369;48.030;11.598;2023-10-19T13:48:12;16.70;99.90
16513;DHT22;8369;48.030;11.598;2023-10-19T13:50:46;16.60;99.90
16513;DHT22;8369;48.030;11.598;2023-10-19T13:53:16;16.60;99.90
16513;DHT22;8369;48.030;11.598;2023-10-19T13:55:43;16.50;99.90
16513;DHT22;8369;48.030;11.598;2023-10-19T13:58:10;16.50;99.90
16513;DHT22;8369;48.030;11.598;2023-10-19T14:00:37;16.40;99.90
16513;DHT22;8369;48.030;11.598;2023-10-19T14:03:07;16.30;99.90
16513;DHT22;8369;48.030;11.598;2023-10-19T14:05:41;16.30;99.90
16513;DHT22;8369;48.030;11.598;2023-10-19T14:08:09;16.20;99.90
16513;DHT22;8369;48.030;11.598;2023-10-19T14:10:36;16.20;99.90
16513;DHT22;8369;48.030;11.598;2023-10-19T14:13:02;16.10;99.90
16513;DHT22;8369;48.030;11.598;2023-10-19T14:15:31;16.10;99.90
16513;DHT22;8369;48.030;11.598;2023-10-19T14:18:00;16.00;99.90
16513;DHT22;8369;48.030;11.598;2023-10-19T14:20:29;16.00;99.90
16513;DHT22;8369;48.030;11.598;2023-10-19T14:22:58;15.90;99.90
16513;DHT22;8369;48.030;11.598;2023-10-19T14:25:27;15.90;99.90
16513;DHT22;8369;48.030;11.598;2023-10-19T14:27:55;15.80;99.90
16513;DHT22;8369;48.030;11.598;2023-10-19T14:30:27;15.80;99.90
16513;DHT22;8369;48.030;11.598;2023-10-19T14:32:54;15.80;99.90
16513;DHT22;8369;48.030;11.598;2023-10-19T14:35:21;15.70;99.90
16513;DHT22;8369;48.030;11.598;2023-10-19T14:37:49;15.70;99.90
16513;DHT22;8369;48.030;11.598;2023-10-19T14:40:20;15.70;99.90
16513;DHT22;8369;48.030;11.598;2023-10-19T14:42:47;15.70;99.90
16513;DHT22;8369;48.030;11.598;2023-10-19T14:45:15;15.70;99.90
16513;DHT22;8369;48.030;11.598;2023-10-19T14:47:48;15.70;99.90
16513;DHT22;8369;48.030;11.598;2023-10-19T14:50:17;15.70;99.90
16513;DHT22;8369;48.030;11.598;2023-10-19T14:52:45;15.70;99.90
16513;DHT22;8369;48.030;11.598;2023-10-19T14:55:13;15.70;99.90
16513;DHT22;8369;48.030;11.598;2023-10-19T14:57:43;15.70;99.90
16513;DHT22;8369;48.030;11.598;2023-10-19T15:00:12;15.70;99.90
16513;DHT22;8369;48.030;11.598;2023-10-19T15:02:43;15.60;99.90
16513;DHT22;8369;48.030;11.598;2023-10-19T15:05:11;15.60;99.90
16513;DHT22;8369;48.030;11.598;2023-10-19T15:07:42;15.50;99.90
16513;DHT22;8369;48.030;11.598;2023-10-19T15:10:12;15.50;99.90
16513;DHT22;8369;48.030;11.598;2023-10-19T15:12:40;15.50;99.90
16513;DHT22;8369;48.030;11.598;2023-10-19T15:15:07;15.40;99.90
16513;DHT22;8369;48.030;11.598;2023-10-19T15:17:38;15.40;99.90
16513;DHT22;8369;48.030;11.598;2023-10-19T15:20:08;15.30;99.90
16513;DHT22;8369;48.030;11.598;2023-10-19T15:22:37;15.30;99.90
16513;DHT22;8369;48.030;11.598;2023-10-19T15:25:10;15.30;99.90
16513;DHT22;8369;48.030;11.598;2023-10-19T15:27:43;15.20;99.90
16513;DHT22;8369;48.030;11.598;2023-10-19T15:30:10;15.20;99.90
16513;DHT22;8369;48.030;11.598;2023-10-19T15:32:41;15.20;99.90
16513;DHT22;8369;48.030;11.598;2023-10-19T15:35:09;15.20;99.90
16513;DHT22;8369;48.030;11.598;2023-10-19T15:37:40;15.20;99.90
16513;DHT22;8369;48.030;11.598;2023-10-19T15:40:07;15.10;99.90
16513;DHT22;8369;48.030;11.598;2023-10-19T15:42:41;15.10;99.90
16513;DHT22;8369;48.030;11.598;2023-10-19T15:45:12;15.10;99.90
16513;DHT22;8369;48.030;11.598;2023-10-19T15:47:39;15.10;99.90
16513;DHT22;8369;48.030;11.598;2023-10-19T15:50:11;15.00;99.90
16513;DHT22;8369;48.030;11.598;2023-10-19T15:53:13;15.00;99.90
16513;DHT22;8369;48.030;11.598;2023-10-19T15:55:46;15.00;99.90
16513;DHT22;8369;48.030;11.598;2023-10-19T15:58:12;14.90;99.90
16513;DHT22;8369;48.030;11.598;2023-10-19T16:00:38;14.90;99.90
16513;DHT22;8369;48.030;11.598;2023-10-19T16:03:04;14.80;99.90
16513;DHT22;8369;48.030;11.598;2023-10-19T16:05:31;14.80;99.90
16513;DHT22;8369;48.030;11.598;2023-10-19T16:07:58;14.80;99.90